Time;durP1;ratioP1;P1;durP2;ratioP2;P2;SDS_P1;SDS_P2;PMS_P1;PMS_P2;Temp;Humidity;BMP_temperature;BMP_pressure;BME280_temperature;BME280_humidity;BME280_pressure;Samples;Min_cycle;Max_cycle;Signal;HPM_P1;HPM_P2
2023/02/16 00:01:45;;;;;;;386.45;145.98;;;;;;;1.42;100.00;102060.16;4984913;28;20052;-75
2023/02/16 00:04:26;;;;;;;372.77;142.88;;;;;;;0.77;100.00;101946.56;4983758;28;20085;-75
2023/02/16 00:06:52;;;;;;;375.88;126.32;;;;;;;1.11;100.00;102054.72;4985976;28;20498;-75
2023/02/16 00:09:19;;;;;;;416.83;158.95;;;;;;;1.19;100.00;102054.38;4992086;28;20510;-76
2023/02/16 00:14:29;;;;;;;504.45;223.98;;;;;;;-0.07;100.00;101906.69;4987111;28;20502;-77
2023/02/16 00:16:56;;;;;;;509.08;214.95;;;;;;;0.72;100.00;102028.94;4989628;28;20553;-76
2023/02/16 00:19:29;;;;;;;299.73;120.60;;;;;;;0.54;100.00;101991.56;4985744;28;20513;-78
2023/02/16 00:21:57;;;;;;;238.73;94.10;;;;;;;0.26;100.00;101894.25;4976777;28;20149;-76
2023/02/16 00:24:25;;;;;;;252.55;98.72;;;;;;;0.39;100.00;101960.47;4988044;28;20139;-78
2023/02/16 00:26:51;;;;;;;214.80;80.65;;;;;;;0.67;100.00;102011.34;4993821;28;20033;-77
2023/02/16 00:29:36;;;;;;;283.83;109.55;;;;;;;0.94;100.00;102043.28;4979691;28;20069;-78
2023/02/16 00:32:04;;;;;;;521.92;249.00;;;;;;;0.31;100.00;102049.44;4987109;28;20152;-78
2023/02/16 00:34:37;;;;;;;362.77;153.85;;;;;;;0.42;100.00;102022.63;4987675;28;20089;-75
2023/02/16 00:37:08;;;;;;;270.10;118.50;;;;;;;-0.39;100.00;101880.41;4997293;28;20046;-78
2023/02/16 00:39:35;;;;;;;203.68;79.03;;;;;;;0.02;100.00;101892.59;5002151;28;20054;-78
2023/02/16 00:42:04;;;;;;;204.50;83.35;;;;;;;0.91;100.00;102012.94;5012855;28;20030;-77
2023/02/16 00:44:39;;;;;;;191.40;78.97;;;;;;;0.15;100.00;101882.31;5005577;28;20026;-77
2023/02/16 00:47:19;;;;;;;214.15;80.22;;;;;;;0.82;100.00;102013.25;5009889;28;20046;-77
2023/02/16 00:49:45;;;;;;;165.38;62.90;;;;;;;-0.26;100.00;101862.38;5002497;28;20065;-77
2023/02/16 00:52:28;;;;;;;187.77;78.03;;;;;;;0.39;100.00;102017.28;4998716;28;20030;-75
2023/02/16 00:54:54;;;;;;;187.60;70.63;;;;;;;0.48;100.00;102004.97;5005777;28;20057;-77
2023/02/16 00:57:21;;;;;;;203.35;81.68;;;;;;;-0.23;100.00;101868.66;5002668;28;20576;-75
2023/02/16 00:59:49;;;;;;;191.38;71.97;;;;;;;0.72;100.00;102015.13;4996071;28;20380;-75
2023/02/16 01:02:15;;;;;;;178.90;75.70;;;;;;;0.02;100.00;101887.44;5007216;28;20033;-76
2023/02/16 01:04:41;;;;;;;181.43;65.72;;;;;;;0.75;100.00;102021.41;5004181;28;20038;-75
2023/02/16 01:12:43;;;;;;;100.93;52.30;;;;;;;0.25;100.00;101969.88;4986891;28;20561;-76
2023/02/16 01:15:12;;;;;;;71.50;34.22;;;;;;;0.61;100.00;102010.16;4985841;28;20168;-75
2023/02/16 01:17:38;;;;;;;82.53;40.35;;;;;;;0.64;100.00;101999.13;4981412;28;20387;-75
2023/02/16 01:20:14;;;;;;;108.32;50.53;;;;;;;-0.09;100.00;101851.53;4987344;28;20049;-78
2023/02/16 01:22:40;;;;;;;114.72;45.38;;;;;;;-0.12;100.00;101853.00;4980925;28;20065;-75
2023/02/16 01:25:05;;;;;;;91.75;44.92;;;;;;;-0.10;100.00;101879.78;4994919;28;20474;-74
2023/02/16 01:27:31;;;;;;;103.78;41.60;;;;;;;0.85;100.00;102009.97;4996773;28;20124;-74
2023/02/16 01:29:57;;;;;;;107.18;49.60;;;;;;;0.77;100.00;102008.56;5005449;28;20033;-77
2023/02/16 01:32:22;;;;;;;62.83;33.45;;;;;;;0.29;100.00;102013.19;5013849;28;20726;-75
2023/02/16 01:34:48;;;;;;;83.47;35.58;;;;;;;-0.08;100.00;101984.88;4993596;28;20215;-77
2023/02/16 01:37:15;;;;;;;78.05;38.22;;;;;;;0.05;100.00;101975.38;4989072;28;20058;-76
2023/02/16 01:39:41;;;;;;;55.28;32.20;;;;;;;-1.01;100.00;101824.66;4990617;28;20490;-76
2023/02/16 01:42:19;;;;;;;56.13;29.52;;;;;;;-0.26;100.00;101986.19;4983463;28;20057;-77
2023/02/16 01:44:58;;;;;;;70.75;27.25;;;;;;;-0.47;100.00;101904.00;4984223;28;20038;-75
2023/02/16 01:47:39;;;;;;;45.42;25.00;;;;;;;-0.08;100.00;101973.66;4986418;28;20418;-77
2023/02/16 01:50:20;;;;;;;36.63;24.65;;;;;;;-1.08;100.00;101831.09;5008924;28;20046;-76
2023/02/16 01:52:57;;;;;;;39.60;19.92;;;;;;;-0.03;100.00;101965.44;5010146;28;20038;-75
2023/02/16 01:55:31;;;;;;;43.00;22.92;;;;;;;0.04;100.00;101969.31;5007294;28;21360;-75
2023/02/16 01:58:05;;;;;;;42.97;24.38;;;;;;;0.15;100.00;101962.31;5009981;28;20449;-77
2023/02/16 02:00:53;;;;;;;43.85;22.80;;;;;;;0.32;100.00;101963.44;5012110;28;20077;-76
2023/02/16 02:06:10;;;;;;;37.50;23.58;;;;;;;-1.06;100.00;101839.78;4990529;28;20521;-76
2023/02/16 02:08:47;;;;;;;42.92;26.02;;;;;;;-0.25;100.00;101950.19;4990934;28;20394;-75
2023/02/16 02:11:23;;;;;;;43.72;23.30;;;;;;;-1.11;100.00;101825.69;4987553;28;20454;-74
2023/02/16 02:14:15;;;;;;;49.08;27.90;;;;;;;-0.40;100.00;101950.81;4989033;28;20129;-77
2023/02/16 02:16:50;;;;;;;50.78;26.92;;;;;;;-0.56;100.00;101903.38;4991073;28;20569;-78
2023/02/16 02:19:16;;;;;;;47.83;22.70;;;;;;;-1.27;100.00;101700.13;4984167;28;20122;-75
2023/02/16 02:24:58;;;;;;;51.38;25.20;;;;;;;-0.59;100.00;101930.59;4987954;28;20050;-78
2023/02/16 02:27:39;;;;;;;49.20;24.92;;;;;;;-1.08;100.00;101777.00;4987824;28;20046;-75
2023/02/16 02:30:23;;;;;;;41.83;24.67;;;;;;;-0.45;100.00;101929.88;4988684;28;20034;-77
2023/02/16 02:33:01;;;;;;;44.13;24.83;;;;;;;-0.29;100.00;101930.13;4977743;28;20105;-76
2023/02/16 02:35:46;;;;;;;46.45;25.08;;;;;;;-1.30;100.00;101809.75;5001566;28;20030;-75
2023/02/16 02:38:30;;;;;;;47.17;24.52;;;;;;;-0.66;100.00;101918.97;4973085;28;20077;-78
2023/02/16 02:41:17;;;;;;;56.33;27.88;;;;;;;-0.47;100.00;101916.88;4989302;28;20050;-74
2023/02/16 02:43:58;;;;;;;46.88;25.63;;;;;;;-0.15;100.00;101932.75;4980693;28;20050;-75
2023/02/16 02:46:29;;;;;;;48.15;27.42;;;;;;;-0.54;100.00;101935.31;4989341;28;20058;-76
2023/02/16 02:48:54;;;;;;;50.67;25.20;;;;;;;-0.73;100.00;101904.75;4986633;28;20046;-75
2023/02/16 02:51:29;;;;;;;44.10;25.50;;;;;;;-1.42;100.00;101780.59;4983673;28;20088;-76
2023/02/16 03:02:57;;;;;;;53.40;27.98;;;;;;;-1.16;100.00;101837.38;5000888;28;20045;-78
2023/02/16 03:05:26;;;;;;;53.30;29.15;;;;;;;-1.73;100.00;101739.81;5012589;28;20407;-76
2023/02/16 03:08:05;;;;;;;51.03;25.40;;;;;;;-1.71;100.00;101740.78;4991002;28;20050;-76
2023/02/16 03:13:35;;;;;;;52.65;28.40;;;;;;;-1.29;100.00;101760.94;4985706;28;20149;-76
2023/02/16 03:16:06;;;;;;;49.65;27.00;;;;;;;-0.63;100.00;101916.63;4986283;28;20132;-76
2023/02/16 03:29:38;;;;;;;54.47;27.67;;;;;;;-0.36;100.00;101922.75;4985064;28;20164;-77
2023/02/16 03:32:04;;;;;;;55.30;27.77;;;;;;;-1.32;100.00;101804.47;4985298;28;20043;-77
2023/02/16 03:34:31;;;;;;;59.75;29.70;;;;;;;-1.57;100.00;101776.16;4986390;28;20053;-77
2023/02/16 03:36:59;;;;;;;57.20;29.55;;;;;;;-0.72;100.00;101913.41;4983278;28;20446;-78
2023/02/16 03:39:30;;;;;;;55.10;27.88;;;;;;;-0.72;100.00;101909.13;4983715;28;20101;-77
2023/02/16 03:41:56;;;;;;;51.90;31.90;;;;;;;-0.57;100.00;101922.19;4984990;28;20137;-78
2023/02/16 03:44:23;;;;;;;60.03;30.02;;;;;;;-1.07;100.00;101817.41;4988310;28;20121;-77
2023/02/16 03:46:51;;;;;;;59.75;27.83;;;;;;;-0.43;100.00;101938.59;4990965;28;20061;-76
2023/02/16 03:49:19;;;;;;;55.92;27.25;;;;;;;-1.45;100.00;101782.91;4990403;28;20062;-77
2023/02/16 03:51:45;;;;;;;53.95;27.80;;;;;;;-0.64;100.00;101897.66;4985819;28;20050;-79
2023/02/16 03:54:11;;;;;;;52.40;28.48;;;;;;;-0.44;100.00;101937.72;4986547;28;20518;-78
2023/02/16 03:56:37;;;;;;;55.28;30.88;;;;;;;-0.82;100.00;101867.16;4985500;28;20042;-79
2023/02/16 03:59:02;;;;;;;69.95;29.70;;;;;;;-0.88;100.00;101876.25;4982498;28;20049;-77
2023/02/16 04:01:28;;;;;;;52.28;26.85;;;;;;;-1.60;100.00;101770.75;4995433;28;20049;-77
2023/02/16 04:03:53;;;;;;;46.53;25.77;;;;;;;-0.85;100.00;101896.19;5004986;28;20462;-78
2023/02/16 04:06:19;;;;;;;49.08;27.05;;;;;;;-0.65;100.00;101921.66;5001668;28;20046;-78
2023/02/16 04:08:44;;;;;;;53.00;28.08;;;;;;;-0.48;100.00;101933.13;4985544;28;20049;-77
2023/02/16 04:13:54;;;;;;;54.63;31.10;;;;;;;-0.53;100.00;101946.50;4988695;28;20045;-78
2023/02/16 04:16:19;;;;;;;69.95;35.33;;;;;;;-1.42;100.00;101780.59;4988368;28;20046;-78
2023/02/16 04:18:45;;;;;;;64.70;35.00;;;;;;;-0.71;100.00;101921.22;4984909;28;20042;-78
2023/02/16 04:21:10;;;;;;;65.55;36.53;;;;;;;-1.36;100.00;101874.59;4991045;28;20046;-77
2023/02/16 04:23:36;;;;;;;58.38;33.58;;;;;;;-2.01;100.00;101799.56;4989477;28;20398;-80
2023/02/16 04:26:02;;;;;;;60.45;34.95;;;;;;;-1.37;100.00;101905.38;5007447;28;20160;-79
2023/02/16 04:28:27;;;;;;;64.47;33.83;;;;;;;-1.15;100.00;101913.84;5015237;28;20490;-79
2023/02/16 04:30:52;;;;;;;67.82;30.65;;;;;;;-2.05;100.00;101771.84;4999289;28;20070;-78
2023/02/16 04:33:18;;;;;;;59.03;32.85;;;;;;;-1.20;100.00;101922.91;5008369;28;20053;-80
2023/02/16 04:35:44;;;;;;;59.92;37.00;;;;;;;-1.47;100.00;101887.47;5001112;28;20030;-79
2023/02/16 04:38:09;;;;;;;63.40;32.08;;;;;;;-1.16;100.00;101921.47;5005044;28;20465;-79
2023/02/16 04:40:35;;;;;;;50.70;34.17;;;;;;;-2.16;100.00;101788.16;5001793;28;20053;-80
2023/02/16 04:43:00;;;;;;;60.97;35.28;;;;;;;-1.48;100.00;101878.84;5002520;28;20084;-79
2023/02/16 04:45:26;;;;;;;70.50;31.70;;;;;;;-1.50;100.00;101895.84;5004423;28;20038;-79
2023/02/16 04:47:51;;;;;;;51.13;29.20;;;;;;;-2.60;100.00;101725.00;4984814;28;20050;-80
2023/02/16 04:50:17;;;;;;;49.55;26.48;;;;;;;-1.47;100.00;101885.78;4979244;28;20136;-81
2023/02/16 04:52:42;;;;;;;42.45;25.17;;;;;;;-1.77;100.00;101782.44;4984718;28;20050;-80
2023/02/16 04:55:09;;;;;;;61.10;30.77;;;;;;;-1.14;100.00;101874.44;4989717;28;20046;-80
2023/02/16 04:57:36;;;;;;;64.22;32.72;;;;;;;-2.02;100.00;101705.19;4988512;28;20121;-80
2023/02/16 05:00:04;;;;;;;52.33;29.33;;;;;;;-1.08;100.00;101900.63;4990057;28;20117;-79
2023/02/16 05:02:31;;;;;;;61.15;34.33;;;;;;;-2.10;100.00;101741.44;4988465;28;20030;-79
2023/02/16 05:04:56;;;;;;;54.65;30.73;;;;;;;-1.73;100.00;101760.41;4989917;28;20042;-79
2023/02/16 05:07:22;;;;;;;53.88;30.13;;;;;;;-1.62;100.00;101774.91;4993564;28;20030;-79
2023/02/16 05:09:47;;;;;;;52.08;32.33;;;;;;;-0.85;100.00;101902.22;4991609;28;20053;-79
2023/02/16 05:14:58;;;;;;;56.60;33.20;;;;;;;-0.77;100.00;101888.97;5009745;28;20045;-81
2023/02/16 05:17:25;;;;;;;61.17;34.67;;;;;;;-1.14;100.00;101871.84;5011105;28;20108;-80
2023/02/16 05:19:56;;;;;;;54.03;31.30;;;;;;;-1.43;100.00;101871.44;5005529;28;20030;-80
2023/02/16 05:22:22;;;;;;;50.85;28.10;;;;;;;-1.85;100.00;101768.13;5003721;28;20042;-81
2023/02/16 05:24:48;;;;;;;42.03;25.90;;;;;;;-0.73;100.00;101922.78;4992983;28;20073;-75
2023/02/16 05:27:19;;;;;;;52.30;27.98;;;;;;;-1.27;100.00;101789.34;5010025;28;20053;-81
2023/02/16 05:29:45;;;;;;;60.92;29.75;;;;;;;-0.88;100.00;101876.25;5005106;28;20034;-79
2023/02/16 05:32:11;;;;;;;55.97;30.23;;;;;;;-0.49;100.00;101928.78;5010819;28;20072;-82
2023/02/16 05:34:37;;;;;;;52.40;34.15;;;;;;;-0.53;100.00;101913.88;4991973;28;20092;-79
2023/02/16 05:37:02;;;;;;;73.20;35.33;;;;;;;-0.41;100.00;101941.31;4989874;28;20074;-81
2023/02/16 05:39:29;;;;;;;62.88;32.33;;;;;;;-0.65;100.00;101906.19;4996766;28;20479;-79
2023/02/16 05:41:56;;;;;;;56.40;31.05;;;;;;;-0.68;100.00;101962.69;4989082;28;20037;-79
2023/02/16 05:44:22;;;;;;;61.42;28.77;;;;;;;-0.58;100.00;101924.69;4987629;28;20077;-79
2023/02/16 05:46:47;;;;;;;51.75;28.98;;;;;;;-1.62;100.00;101766.28;4989626;28;20066;-82
2023/02/16 05:49:14;;;;;;;47.33;25.27;;;;;;;-1.19;100.00;101874.91;4989654;28;20051;-80
2023/02/16 05:51:40;;;;;;;48.45;26.60;;;;;;;-1.46;100.00;101818.06;4979566;28;20455;-79
2023/02/16 05:54:05;;;;;;;47.78;28.60;;;;;;;-0.76;100.00;101939.75;4984939;28;20121;-81
2023/02/16 05:56:31;;;;;;;60.65;28.85;;;;;;;-1.32;100.00;101825.09;4995666;28;20033;-84
2023/02/16 05:59:00;;;;;;;54.42;28.95;;;;;;;-1.14;100.00;101887.31;5012659;28;20046;-80
2023/02/16 06:01:27;;;;;;;53.00;29.75;;;;;;;-0.55;100.00;101948.06;5006119;28;20049;-82
2023/02/16 06:03:53;;;;;;;44.28;26.10;;;;;;;-0.94;100.00;101872.34;5004599;28;20482;-80
2023/02/16 06:06:19;;;;;;;70.57;33.05;;;;;;;-0.32;100.00;101970.31;4989425;28;20109;-80
2023/02/16 06:08:44;;;;;;;63.60;27.83;;;;;;;-0.06;100.00;101974.66;4989501;28;20482;-81
2023/02/16 06:13:58;;;;;;;46.20;30.30;;;;;;;-0.80;100.00;101868.16;4982034;28;20571;-81
2023/02/16 06:16:26;;;;;;;52.88;32.47;;;;;;;-0.11;100.00;101966.63;4985516;28;20059;-81
2023/02/16 06:18:52;;;;;;;54.75;31.20;;;;;;;0.05;100.00;101986.63;4988508;28;20551;-81
2023/02/16 06:21:18;;;;;;;68.22;33.42;;;;;;;-0.89;100.00;101855.50;4989713;28;20038;-81
2023/02/16 06:23:44;;;;;;;69.53;32.03;;;;;;;-0.08;100.00;101973.66;4987255;28;20054;-80
2023/02/16 06:26:09;;;;;;;65.47;29.65;;;;;;;0.26;100.00;101978.50;4985136;28;20049;-81
2023/02/16 06:28:35;;;;;;;43.97;29.33;;;;;;;0.44;100.00;101984.91;4988710;28;20049;-80
2023/02/16 06:31:00;;;;;;;50.05;27.85;;;;;;;0.36;100.00;101973.19;4984676;28;20054;-77
2023/02/16 06:33:26;;;;;;;48.92;28.73;;;;;;;0.45;100.00;101966.03;4985285;28;20046;-78
2023/02/16 06:35:51;;;;;;;59.67;28.80;;;;;;;0.61;100.00;101986.91;4982149;28;20090;-80
2023/02/16 06:38:17;;;;;;;50.67;30.10;;;;;;;0.36;100.00;101922.44;4988487;28;20043;-79
2023/02/16 06:40:42;;;;;;;50.55;28.95;;;;;;;-0.29;100.00;101850.19;4985333;28;20050;-83
2023/02/16 06:43:08;;;;;;;60.25;34.55;;;;;;;-0.16;100.00;101869.06;4987399;28;20057;-80
2023/02/16 06:45:33;;;;;;;53.63;31.52;;;;;;;0.55;100.00;101985.63;4981852;28;20077;-80
2023/02/16 06:47:59;;;;;;;55.92;32.25;;;;;;;0.64;100.00;101975.88;4981412;28;20066;-79
2023/02/16 06:50:24;;;;;;;58.63;30.73;;;;;;;0.69;100.00;101990.00;4975497;28;20139;-82
2023/02/16 06:52:49;;;;;;;64.55;30.85;;;;;;;1.02;100.00;101986.09;4983288;28;20050;-83
2023/02/16 06:55:15;;;;;;;51.92;28.48;;;;;;;0.89;100.00;102000.72;4986198;28;20038;-82
2023/02/16 06:57:41;;;;;;;49.15;29.95;;;;;;;0.58;100.00;101947.94;4982804;28;20069;-82
2023/02/16 07:00:07;;;;;;;62.08;32.47;;;;;;;0.87;100.00;101987.72;4985067;28;20141;-82
2023/02/16 07:02:32;;;;;;;56.30;26.88;;;;;;;0.98;100.00;101975.47;4987651;28;20040;-82
2023/02/16 07:04:58;;;;;;;49.08;25.27;;;;;;;1.21;100.00;101997.63;5005421;28;20038;-82
2023/02/16 07:07:23;;;;;;;38.28;23.30;;;;;;;0.57;100.00;101922.06;5008041;28;20050;-82
2023/02/16 07:09:49;;;;;;;38.13;24.42;;;;;;;1.15;100.00;102002.41;4999238;28;20038;-81
2023/02/16 07:12:15;;;;;;;49.25;25.75;;;;;;;0.70;100.00;101887.56;4988517;28;20061;-82
2023/02/16 07:14:40;;;;;;;40.50;25.08;;;;;;;1.36;100.00;102008.94;4987608;28;20168;-84
2023/02/16 07:17:06;;;;;;;32.83;21.98;;;;;;;0.65;100.00;101824.38;4988833;28;20133;-83
2023/02/16 07:19:32;;;;;;;45.42;24.50;;;;;;;1.80;100.00;102004.72;4987796;28;20054;-82
2023/02/16 07:22:04;;;;;;;60.67;26.67;;;;;;;1.76;100.00;102015.72;4990661;28;20042;-80
2023/02/16 07:24:29;;;;;;;47.40;27.17;;;;;;;1.20;100.00;101903.66;4984182;28;20418;-80
2023/02/16 07:26:55;;;;;;;56.50;29.40;;;;;;;1.20;100.00;101908.84;4988652;28;20049;-82
2023/02/16 07:29:21;;;;;;;47.40;27.63;;;;;;;1.98;100.00;102011.03;4981105;28;20415;-82
2023/02/16 07:31:46;;;;;;;64.38;30.38;;;;;;;2.16;100.00;102007.78;4985733;28;20498;-81
2023/02/16 07:34:12;;;;;;;63.47;34.00;;;;;;;2.18;100.00;101994.09;4987056;28;20108;-83
2023/02/16 07:36:37;;;;;;;63.03;31.90;;;;;;;1.82;100.00;101931.56;4986773;28;20514;-82
2023/02/16 07:39:03;;;;;;;70.18;34.92;;;;;;;2.20;100.00;101987.31;4987004;28;20077;-82
2023/02/16 07:41:30;;;;;;;51.47;29.65;;;;;;;2.57;100.00;102011.88;4987769;28;20034;-82
2023/02/16 07:43:55;;;;;;;127.18;36.92;;;;;;;1.80;100.00;101888.28;4988357;28;20148;-82
2023/02/16 07:46:21;;;;;;;71.20;33.72;;;;;;;2.89;100.00;102022.41;4988071;28;20125;-81
2023/02/16 07:48:47;;;;;;;58.90;32.22;;;;;;;2.81;100.00;102012.41;4982593;28;20046;-82
2023/02/16 07:51:23;;;;;;;52.53;31.50;;;;;;;3.02;100.00;102037.00;4985314;28;20121;-81
2023/02/16 07:53:49;;;;;;;70.32;35.08;;;;;;;2.22;100.00;101882.13;4988240;28;20049;-81
2023/02/16 07:56:36;;;;;;;56.47;31.48;;;;;;;2.29;100.00;101891.13;4991952;28;20043;-82
2023/02/16 07:59:03;;;;;;;65.97;34.60;;;;;;;3.24;100.00;102038.19;4986932;28;20424;-82
2023/02/16 08:01:29;;;;;;;63.97;35.65;;;;;;;2.63;100.00;101900.84;4988110;28;20050;-81
2023/02/16 08:03:55;;;;;;;60.60;33.63;;;;;;;3.64;100.00;102023.09;4991119;28;20498;-78
2023/02/16 08:06:22;;;;;;;48.75;31.45;;;;;;;3.14;100.00;101918.38;4993843;28;20522;-76
2023/02/16 08:08:48;;;;;;;50.80;32.97;;;;;;;3.83;100.00;102017.19;5010215;28;20113;-79
2023/02/16 08:11:19;;;;;;;56.00;33.08;;;;;;;3.38;100.00;101915.31;4985518;28;20049;-81
2023/02/16 08:13:46;;;;;;;62.13;32.67;;;;;;;3.54;100.00;101919.63;4987153;28;20112;-81
2023/02/16 08:16:18;;;;;;;52.63;29.73;;;;;;;3.87;100.00;101938.66;4987705;28;20049;-77
2023/02/16 08:18:44;;;;;;;57.42;30.15;;;;;;;4.21;100.00;101972.47;4986713;28;20356;-80
2023/02/16 08:21:19;;;;;;;48.92;33.17;;;;;;;4.21;100.00;101940.38;4984446;28;20058;-80
2023/02/16 08:23:51;;;;;;;52.90;32.83;;;;;;;4.92;100.00;102034.88;4985845;28;20034;-79
2023/02/16 08:26:18;;;;;;;67.72;36.70;;;;;;;4.34;100.00;101919.38;4986670;28;20065;-78
2023/02/16 08:28:45;;;;;;;63.90;35.78;;;;;;;5.05;100.00;102043.34;4984514;28;20050;-79
2023/02/16 08:31:18;;;;;;;71.50;38.67;;;;;;;5.11;100.00;102055.78;4985613;28;20058;-77
2023/02/16 08:33:45;;;;;;;66.82;37.22;;;;;;;4.56;100.00;101929.13;4986029;28;20046;-79
2023/02/16 08:36:19;;;;;;;63.65;39.08;;;;;;;4.63;100.00;101919.91;4987150;28;20042;-79
2023/02/16 08:38:45;;;;;;;80.88;44.13;;;;;;;5.23;100.00;102004.31;4980823;28;20042;-80
2023/02/16 08:41:12;;;;;;;74.05;49.67;;;;;;;5.01;100.00;101954.66;4985474;28;20108;-79
2023/02/16 08:43:37;;;;;;;71.88;40.78;;;;;;;4.63;100.00;101928.59;4985341;28;20050;-78
2023/02/16 08:46:06;;;;;;;68.43;41.88;;;;;;;5.38;100.00;102037.97;4989402;28;20053;-77
2023/02/16 08:48:34;;;;;;;78.35;40.60;;;;;;;5.72;100.00;102066.47;4980831;28;20053;-76
2023/02/16 08:51:00;;;;;;;66.75;41.38;;;;;;;4.96;100.00;101912.81;4979192;28;20124;-79
2023/02/16 08:53:26;;;;;;;53.72;35.55;;;;;;;5.81;100.00;102039.97;4984819;28;20034;-75
2023/02/16 08:55:56;;;;;;;61.45;34.65;;;;;;;5.97;100.00;102044.22;4981311;28;20177;-75
2023/02/16 08:58:23;;;;;;;57.28;33.28;;;;;;;6.13;100.00;102064.94;4999113;28;20168;-75
2023/02/16 09:00:49;;;;;;;56.17;36.08;;;;;;;6.05;100.00;102035.00;5002537;28;20500;-76
2023/02/16 09:03:17;;;;;;;45.20;32.05;;;;;;;5.95;100.00;101998.97;4992989;28;20046;-76
2023/02/16 09:05:47;;;;;;;55.90;32.15;;;;;;;5.74;100.00;101932.84;4993992;28;20035;-78
2023/02/16 09:08:15;;;;;;;53.47;31.80;;;;;;;6.31;100.00;102053.50;4990762;28;20058;-77
2023/02/16 09:10:41;;;;;;;53.38;29.42;;;;;;;5.91;100.00;101990.06;4998110;28;20137;-77
2023/02/16 09:13:13;;;;;;;53.00;30.67;;;;;;;5.98;100.00;101969.53;5003390;28;20042;-77
2023/02/16 09:15:40;;;;;;;61.78;33.67;;;;;;;5.91;100.00;101935.34;5004157;28;20411;-80
2023/02/16 09:18:08;;;;;;;61.75;36.63;;;;;;;6.71;100.00;102056.09;5001993;28;20532;-78
2023/02/16 09:20:37;;;;;;;63.80;35.72;;;;;;;6.70;100.00;102029.97;5000794;28;20034;-77
2023/02/16 09:23:04;;;;;;;59.60;37.47;;;;;;;6.79;100.00;102059.06;5000955;28;20138;-76
2023/02/16 09:25:29;;;;;;;61.95;35.13;;;;;;;6.10;100.00;101955.31;5004688;28;20493;-79
2023/02/16 09:27:55;;;;;;;66.05;38.45;;;;;;;6.25;100.00;101936.84;5005862;28;20128;-76
2023/02/16 09:30:21;;;;;;;74.07;44.45;;;;;;;6.84;100.00;102039.28;5005358;28;20089;-76
2023/02/16 09:32:46;;;;;;;57.75;34.78;;;;;;;6.26;100.00;101955.97;5004585;28;20030;-76
2023/02/16 09:35:12;;;;;;;58.25;38.13;;;;;;;6.56;100.00;101979.84;5011055;28;20076;-76
2023/02/16 09:37:37;;;;;;;50.40;33.42;;;;;;;6.44;100.00;101919.34;4986077;28;20363;-75
2023/02/16 09:40:04;;;;;;;41.70;28.25;;;;;;;7.25;100.00;102050.50;4993835;28;20054;-75
2023/02/16 09:42:32;;;;;;;51.80;35.47;;;;;;;7.07;100.00;102042.81;5004711;28;20045;-79
2023/02/16 09:45:12;;;;;;;52.88;33.80;;;;;;;6.50;100.00;101920.50;5005628;28;20173;-76
2023/02/16 09:47:42;;;;;;;49.85;33.60;;;;;;;7.08;100.00;101986.28;4985537;28;20042;-77
2023/02/16 09:50:27;;;;;;;47.20;33.35;;;;;;;7.57;100.00;102050.88;4988228;28;20038;-76
2023/02/16 09:53:12;;;;;;;57.25;32.40;;;;;;;7.69;100.00;102032.16;4987397;28;20557;-76
2023/02/16 09:55:46;;;;;;;43.50;27.48;;;;;;;7.80;100.00;102042.19;4980778;28;20133;-76
2023/02/16 09:58:32;;;;;;;44.83;26.88;;;;;;;7.71;100.00;102033.13;4985078;28;20132;-78
2023/02/16 10:01:09;;;;;;;53.38;32.30;;;;;;;7.45;100.00;102000.78;4985021;28;20058;-77
2023/02/16 10:03:41;;;;;;;46.13;32.85;;;;;;;7.55;100.00;102024.69;4986173;28;20042;-77
2023/02/16 10:06:58;;;;;;;56.33;35.42;;;;;;;7.73;100.00;102001.00;4988681;28;20127;-76
2023/02/16 10:09:27;;;;;;;59.45;34.83;;;;;;;7.88;100.00;102018.94;4966963;28;20061;-77
2023/02/16 10:12:04;;;;;;;57.22;35.28;;;;;;;7.71;100.00;101981.75;5016142;28;20042;-76
2023/02/16 10:14:46;;;;;;;50.58;33.03;;;;;;;8.06;100.00;102004.78;5008511;28;20042;-77
2023/02/16 10:17:33;;;;;;;54.88;37.00;;;;;;;8.36;100.00;102007.59;5006420;28;20044;-77
2023/02/16 10:20:05;;;;;;;49.85;35.80;;;;;;;8.05;100.00;101967.28;4989947;28;20046;-78
2023/02/16 10:22:56;;;;;;;59.63;34.65;;;;;;;8.44;100.00;102009.66;4984931;28;20046;-77
2023/02/16 10:25:42;;;;;;;58.55;39.50;;;;;;;8.03;100.00;101998.59;5001792;28;20065;-77
2023/02/16 10:28:21;;;;;;;60.45;38.50;;;;;;;7.64;100.00;101940.56;5008549;28;20053;-76
2023/02/16 10:31:10;;;;;;;55.20;37.20;;;;;;;8.23;100.00;101981.00;5002064;28;20050;-75
2023/02/16 10:33:44;;;;;;;53.55;40.22;;;;;;;8.33;100.00;101979.59;5014100;28;20054;-78
2023/02/16 10:36:28;;;;;;;54.22;37.83;;;;;;;8.52;100.00;101943.63;5005854;28;20061;-77
2023/02/16 10:39:00;;;;;;;56.95;37.42;;;;;;;8.63;100.00;101948.38;5005686;28;20129;-76
2023/02/16 10:41:35;;;;;;;62.05;41.33;;;;;;;8.14;100.00;101852.56;5010754;28;20094;-79
2023/02/16 10:44:27;;;;;;;59.33;41.28;;;;;;;8.80;100.00;101961.09;5012303;28;20076;-76
2023/02/16 10:47:01;;;;;;;58.38;41.80;;;;;;;8.82;100.00;101970.78;5004204;28;20077;-78
2023/02/16 10:49:28;;;;;;;;;;;;;;;9.29;100.00;101950.47;5015748;28;20165;-76
2023/02/16 10:51:56;;;;;;;58.15;39.65;;;;;;;9.45;100.00;101912.47;4997154;28;20020;-78
2023/02/16 10:54:28;;;;;;;57.72;40.88;;;;;;;9.90;100.00;101947.78;4987927;28;20073;-77
2023/02/16 10:57:04;;;;;;;63.05;43.95;;;;;;;9.75;100.00;101926.41;4988946;28;20080;-82
2023/02/16 10:59:29;;;;;;;68.28;43.85;;;;;;;9.93;100.00;101953.16;4995800;28;20351;-82
2023/02/16 11:01:57;;;;;;;62.47;44.28;;;;;;;9.60;99.97;101919.91;4980748;28;20058;-77
2023/02/16 11:04:36;;;;;;;58.80;44.63;;;;;;;9.41;99.25;101818.03;4995385;28;20060;-79
2023/02/16 11:07:17;;;;;;;61.60;41.55;;;;;;;10.39;100.00;101932.50;4986421;28;20041;-78
2023/02/16 11:09:46;;;;;;;66.03;43.33;;;;;;;10.24;96.46;101793.94;4994550;28;20057;-77
2023/02/16 11:12:40;;;;;;;61.00;42.03;;;;;;;10.86;90.70;101924.91;4984686;28;20192;-78
2023/02/16 11:15:20;;;;;;;60.88;45.85;;;;;;;10.97;88.00;101931.28;4988060;28;20121;-80
2023/02/16 11:17:51;;;;;;;59.67;42.72;;;;;;;10.88;87.03;101918.81;4988778;28;20089;-76
2023/02/16 11:20:41;;;;;;;58.42;44.88;;;;;;;10.98;86.60;101918.19;4983514;28;20061;-77
2023/02/16 11:23:27;;;;;;;59.03;40.53;;;;;;;10.68;88.88;101926.25;4986895;28;20041;-76
2023/02/16 11:25:53;;;;;;;52.13;39.22;;;;;;;11.16;85.90;101904.56;4988420;28;20038;-79
2023/02/16 11:28:45;;;;;;;59.13;40.97;;;;;;;10.78;80.27;101830.19;4986145;28;20057;-76
2023/02/16 11:31:32;;;;;;;55.17;38.30;;;;;;;11.32;78.08;101905.78;4983442;28;20062;-74
2023/02/16 11:34:02;;;;;;;53.33;39.72;;;;;;;11.08;80.02;101911.41;4986909;28;20050;-75
2023/02/16 11:36:37;;;;;;;53.45;40.58;;;;;;;10.55;81.97;101892.66;4987789;28;20432;-76
2023/02/16 11:39:06;;;;;;;59.72;40.70;;;;;;;10.18;84.09;101789.41;4987520;28;20096;-77
2023/02/16 11:41:32;;;;;;;60.97;40.65;;;;;;;10.40;78.59;101803.97;4989874;28;20070;-77
2023/02/16 11:43:59;;;;;;;50.80;37.03;;;;;;;10.52;76.51;101774.50;4987416;28;20046;-77
2023/02/16 11:46:25;;;;;;;63.47;44.58;;;;;;;10.24;78.24;101792.19;4984831;28;20481;-79
2023/02/16 11:48:51;;;;;;;55.15;40.95;;;;;;;10.75;80.91;101843.28;4983348;28;20057;-78
2023/02/16 11:51:30;;;;;;;60.72;41.58;;;;;;;10.54;83.48;101880.41;4989659;28;20060;-78
2023/02/16 11:54:06;;;;;;;61.53;41.20;;;;;;;10.74;82.43;101868.63;5006092;28;20096;-78
2023/02/16 11:56:36;;;;;;;58.90;40.95;;;;;;;10.20;82.16;101792.09;4986254;28;20332;-77
2023/02/16 11:59:14;;;;;;;53.83;39.13;;;;;;;10.35;81.43;101810.88;5006509;28;20095;-77
2023/02/16 12:01:42;;;;;;;55.88;40.20;;;;;;;10.40;85.11;101866.97;5006265;28;20049;-77
2023/02/16 12:04:19;;;;;;;54.00;39.10;;;;;;;10.36;86.39;101857.22;5002704;28;20138;-77